createdAt,value
2019-04-03T00:01:46.056Z,18.70
2019-04-03T00:04:19.735Z,15.03
2019-04-03T00:06:53.450Z,15.87
2019-04-03T00:09:27.095Z,18.47
2019-04-03T00:12:00.827Z,17.07
2019-04-03T00:14:34.950Z,15.70
2019-04-03T00:17:08.519Z,13.93
2019-04-03T00:19:42.089Z,19.77
2019-04-03T00:22:15.708Z,15.57
2019-04-03T00:24:49.253Z,15.67
2019-04-03T00:27:23.225Z,15.73
2019-04-03T00:29:56.820Z,17.50
2019-04-03T00:32:30.516Z,19.10
2019-04-03T00:35:04.803Z,13.87
2019-04-03T00:37:38.436Z,16.13
2019-04-03T00:40:12.926Z,15.33
2019-04-03T00:42:46.872Z,17.77
2019-04-03T00:45:20.513Z,14.33
2019-04-03T00:47:55.695Z,17.37
2019-04-03T00:50:29.410Z,15.53
2019-04-03T00:53:03.827Z,16.13
2019-04-03T00:55:37.743Z,13.67
2019-04-03T00:58:37.300Z,12.07
2019-04-03T01:01:12.863Z,12.40
2019-04-03T01:03:46.500Z,15.23
2019-04-03T01:06:20.096Z,11.80
2019-04-03T01:08:53.633Z,19.37
2019-04-03T01:11:28.839Z,12.80
2019-04-03T01:14:02.745Z,13.70
2019-04-03T01:16:36.370Z,16.03
2019-04-03T01:19:10.021Z,14.37
2019-04-03T01:21:43.558Z,11.93
2019-04-03T01:24:17.141Z,15.47
2019-04-03T01:26:50.680Z,14.93
2019-04-03T01:29:24.331Z,20.47
2019-04-03T01:31:57.891Z,12.53
2019-04-03T01:34:31.614Z,15.17
2019-04-03T01:37:05.167Z,14.80
2019-04-03T01:39:38.755Z,14.17
2019-04-03T01:42:12.271Z,19.00
2019-04-03T01:44:45.856Z,15.50
2019-04-03T01:47:19.479Z,17.00
2019-04-03T01:49:53.011Z,24.77
2019-04-03T01:52:26.585Z,13.63
2019-04-03T01:55:03.405Z,19.90
2019-04-03T01:57:36.781Z,14.40
2019-04-03T02:00:11.976Z,15.27
2019-04-03T02:02:45.674Z,14.10
2019-04-03T02:05:19.262Z,18.37
2019-04-03T02:07:52.849Z,17.47
2019-04-03T02:10:27.583Z,19.17
2019-04-03T02:13:01.145Z,18.33
2019-04-03T02:15:34.674Z,14.70
2019-04-03T02:18:08.262Z,14.47
2019-04-03T02:20:41.931Z,17.20
2019-04-03T02:23:15.524Z,19.10
2019-04-03T02:25:49.105Z,14.07
2019-04-03T02:28:22.701Z,22.03
2019-04-03T02:30:56.231Z,19.07
2019-04-03T02:33:29.874Z,19.30
2019-04-03T02:36:03.700Z,16.93
2019-04-03T02:38:37.337Z,18.03
2019-04-03T02:41:11.267Z,15.63
2019-04-03T02:43:46.287Z,15.60
2019-04-03T02:46:20.370Z,17.63
2019-04-03T02:48:54.044Z,19.43
2019-04-03T02:51:27.637Z,18.87
2019-04-03T02:54:02.424Z,17.60
2019-04-03T02:56:37.150Z,17.63
2019-04-03T02:59:10.994Z,16.67
2019-04-03T03:01:44.818Z,23.70
2019-04-03T03:04:20.530Z,19.57
2019-04-03T03:06:53.804Z,19.93
2019-04-03T03:09:28.086Z,18.63
2019-04-03T03:12:03.073Z,17.57
2019-04-03T03:14:39.757Z,17.50
2019-04-03T03:17:14.456Z,24.33
2019-04-03T03:19:50.392Z,20.50
2019-04-03T03:22:24.711Z,20.37
2019-04-03T03:25:00.969Z,26.03
2019-04-03T03:27:36.034Z,24.93
2019-04-03T03:30:33.235Z,21.00
2019-04-03T03:32:47.113Z,20.60
2019-04-03T03:35:29.374Z,25.70
2019-04-03T03:37:57.367Z,17.13
2019-04-03T03:40:32.578Z,22.07
2019-04-03T03:43:06.782Z,18.80
2019-04-03T03:45:40.996Z,22.10
2019-04-03T03:48:14.800Z,20.20
2019-04-03T03:50:48.858Z,18.77
2019-04-03T03:53:23.390Z,22.70
2019-04-03T03:55:59.356Z,23.63
2019-04-03T03:58:32.462Z,19.93
2019-04-03T04:01:06.651Z,19.03
2019-04-03T04:03:41.955Z,23.07
2019-04-03T04:06:16.272Z,23.00
2019-04-03T04:08:52.642Z,22.10
2019-04-03T04:11:30.101Z,22.57
2019-04-03T04:14:01.699Z,22.77
2019-04-03T04:16:37.700Z,23.00
2019-04-03T04:19:12.166Z,24.67
2019-04-03T04:21:46.027Z,24.20
2019-04-03T04:24:20.321Z,21.50
2019-04-03T04:26:54.193Z,20.77
2019-04-03T04:29:27.945Z,21.93
2019-04-03T04:32:01.550Z,24.93
2019-04-03T04:34:35.157Z,24.40
2019-04-03T04:37:08.690Z,26.63
2019-04-03T04:39:42.689Z,21.63
2019-04-03T04:42:16.590Z,23.13
2019-04-03T04:44:50.222Z,28.57
2019-04-03T04:47:23.959Z,23.27
2019-04-03T04:49:57.645Z,24.67
2019-04-03T04:52:31.264Z,23.93
2019-04-03T04:55:05.490Z,23.97
2019-04-03T04:57:41.063Z,27.27
2019-04-03T05:04:57.507Z,25.07
2019-04-03T05:07:31.424Z,22.50
2019-04-03T05:10:05.929Z,23.90
2019-04-03T05:12:42.663Z,30.97
2019-04-03T05:15:15.651Z,24.37
2019-04-03T05:17:50.616Z,26.83
2019-04-03T05:20:24.420Z,24.60
2019-04-03T05:22:58.106Z,26.07
2019-04-03T05:25:31.699Z,22.23
2019-04-03T05:28:05.289Z,26.53
2019-04-03T05:30:38.922Z,28.47
2019-04-03T05:33:12.855Z,29.23
2019-04-03T05:35:46.654Z,30.63
2019-04-03T05:38:22.471Z,25.30
2019-04-03T05:40:56.470Z,23.00
2019-04-03T05:43:31.532Z,29.97
2019-04-03T05:46:05.640Z,27.00
2019-04-03T05:48:40.116Z,32.13
2019-04-03T05:51:13.772Z,28.00
2019-04-03T05:53:47.507Z,28.93
2019-04-03T05:56:21.123Z,30.20
2019-04-03T05:58:57.214Z,30.60
2019-04-03T06:01:30.144Z,27.43
2019-04-03T06:04:03.769Z,26.00
2019-04-03T06:06:37.429Z,23.53
2019-04-03T06:09:11.788Z,23.77
2019-04-03T06:11:45.585Z,26.50
2019-04-03T06:14:19.814Z,28.47
2019-04-03T06:16:56.170Z,37.80
2019-04-03T06:19:30.692Z,28.70
2019-04-03T06:22:04.518Z,26.17
2019-04-03T06:24:38.549Z,28.60
2019-04-03T06:27:12.891Z,65.23
2019-04-03T06:29:46.913Z,48.40
2019-04-03T06:32:20.525Z,41.27
2019-04-03T06:34:54.225Z,33.90
2019-04-03T06:37:27.872Z,35.63
2019-04-03T07:31:25.216Z,26.00
2019-04-03T07:34:01.770Z,25.13
2019-04-03T07:36:34.922Z,27.67
2019-04-03T07:39:11.166Z,25.73
2019-04-03T07:41:45.166Z,22.50
2019-04-03T07:44:18.930Z,24.50
2019-04-03T07:46:54.963Z,21.23
2019-04-03T07:49:28.042Z,20.40
2019-04-03T07:52:01.703Z,22.73
2019-04-03T07:54:35.691Z,24.10
2019-04-03T07:57:10.541Z,19.13
2019-04-03T07:59:44.320Z,17.73
2019-04-03T08:02:17.938Z,22.27
2019-04-03T08:04:51.947Z,17.70
2019-04-03T08:07:25.892Z,16.73
2019-04-03T08:09:59.608Z,18.37
2019-04-03T08:12:35.700Z,20.83
2019-04-03T08:15:12.646Z,18.40
2019-04-03T08:17:46.003Z,18.20
2019-04-03T08:20:20.555Z,18.20
2019-04-03T08:22:54.333Z,21.50
2019-04-03T08:25:27.959Z,23.73
2019-04-03T08:28:01.858Z,19.90
2019-04-03T08:30:37.065Z,20.47
2019-04-03T08:33:17.560Z,18.57
2019-04-03T08:35:47.395Z,25.17
2019-04-03T08:38:21.111Z,21.00
2019-04-03T08:40:54.854Z,18.00
2019-04-03T08:43:31.510Z,20.60
2019-04-03T08:46:03.987Z,21.47
2019-04-03T08:48:37.748Z,22.53
2019-04-03T08:56:25.186Z,18.57
2019-04-03T08:58:59.041Z,20.80
2019-04-03T09:01:34.447Z,19.17
2019-04-03T09:04:08.174Z,18.77
2019-04-03T09:06:41.872Z,20.37
2019-04-03T09:09:15.537Z,19.50
2019-04-03T09:11:49.790Z,20.03
2019-04-03T09:14:25.002Z,19.93
2019-04-03T09:16:58.836Z,21.10
2019-04-03T09:19:32.609Z,20.30
2019-04-03T09:22:06.343Z,22.47
2019-04-03T09:24:40.012Z,18.20
2019-04-03T09:27:13.940Z,15.60
2019-04-03T09:29:47.582Z,19.50
2019-04-03T09:32:22.715Z,15.03
2019-04-03T09:34:56.844Z,19.60
2019-04-03T09:37:30.836Z,16.53
2019-04-03T09:40:05.121Z,16.07
2019-04-03T09:42:38.740Z,16.17
2019-04-03T09:45:12.776Z,17.03
2019-04-03T09:47:46.766Z,16.37
2019-04-03T09:50:26.143Z,16.03
2019-04-03T09:53:02.299Z,18.10
2019-04-03T09:55:37.467Z,14.00
2019-04-03T09:58:11.027Z,19.53
2019-04-03T10:00:44.700Z,18.80
2019-04-03T10:03:18.447Z,16.83
2019-04-03T10:05:52.221Z,16.10
2019-04-03T10:08:26.220Z,16.60
2019-04-03T10:11:00.270Z,16.13
2019-04-03T10:13:34.057Z,12.67
2019-04-03T10:16:07.705Z,13.80
2019-04-03T10:18:42.472Z,13.40
2019-04-03T10:21:17.799Z,11.60
2019-04-03T10:23:52.383Z,13.13
2019-04-03T10:26:26.423Z,10.40
2019-04-03T10:29:00.556Z,12.07
2019-04-03T10:31:34.876Z,11.90
2019-04-03T10:34:08.544Z,11.10
2019-04-03T10:36:43.544Z,14.13
2019-04-03T10:39:20.814Z,12.20
2019-04-03T10:42:19.289Z,10.70
2019-04-03T10:44:54.449Z,9.13
2019-04-03T10:47:40.505Z,12.00
2019-04-03T10:50:23.030Z,10.10
2019-04-03T10:52:56.978Z,11.33
2019-04-03T10:55:30.767Z,9.00
2019-04-03T10:58:06.910Z,10.50
2019-04-03T11:00:39.909Z,11.00
2019-04-03T11:03:38.436Z,9.47
2019-04-03T11:06:16.098Z,10.00
2019-04-03T11:08:52.341Z,10.27
2019-04-03T11:11:29.657Z,9.63
2019-04-03T11:14:04.845Z,10.00
2019-04-03T11:16:39.496Z,7.73
2019-04-03T11:19:13.215Z,6.83
2019-04-03T11:21:47.027Z,8.67
2019-04-03T11:24:23.403Z,8.50
2019-04-03T11:26:58.587Z,11.00
2019-04-03T11:29:32.292Z,7.00
2019-04-03T11:32:08.524Z,6.20
2019-04-03T11:34:53.235Z,7.97
2019-04-03T11:37:27.244Z,7.73
2019-04-03T11:40:05.158Z,7.93
2019-04-03T11:42:40.174Z,7.97
2019-04-03T11:45:14.911Z,10.93
2019-04-03T11:47:48.831Z,9.63
2019-04-03T11:50:25.314Z,14.53
2019-04-03T11:53:02.099Z,11.37
2019-04-03T11:55:35.641Z,9.93
2019-04-03T11:58:09.468Z,9.57
2019-04-03T12:00:46.408Z,10.07
2019-04-03T12:03:20.210Z,12.43
2019-04-03T12:05:54.049Z,8.90
2019-04-03T12:08:28.913Z,10.00
2019-04-03T12:11:06.126Z,7.40
2019-04-03T12:13:39.301Z,9.03
2019-04-03T12:16:13.004Z,9.97
2019-04-03T12:18:47.324Z,9.23
2019-04-03T12:21:21.386Z,10.27
2019-04-03T12:24:05.960Z,9.33
2019-04-03T12:26:42.477Z,8.93
2019-04-03T12:29:15.815Z,10.80
2019-04-03T12:31:50.163Z,9.90
2019-04-03T12:34:23.957Z,10.07
2019-04-03T12:36:59.247Z,9.30
2019-04-03T14:34:29.266Z,4.00
2019-04-03T17:56:42.970Z,20.03
2019-04-03T17:59:18.403Z,11.80
2019-04-03T18:01:52.959Z,11.03
2019-04-03T18:04:26.693Z,9.67
2019-04-03T18:07:00.932Z,10.57
2019-04-03T18:09:41.945Z,10.70
2019-04-03T18:12:21.139Z,10.77
2019-04-03T18:14:53.661Z,10.13
2019-04-03T18:17:27.242Z,11.10
2019-04-03T18:20:00.941Z,11.80
2019-04-03T18:22:34.670Z,9.00
2019-04-03T18:25:10.563Z,10.83
2019-04-03T18:27:44.962Z,12.23
2019-04-03T18:30:20.840Z,12.43
2019-04-03T18:32:58.349Z,12.30
2019-04-03T18:35:33.675Z,13.60
2019-04-03T18:38:08.552Z,14.63
2019-04-03T18:40:45.642Z,14.70
2019-04-03T18:43:21.624Z,17.67
2019-04-03T18:46:00.004Z,14.40
2019-04-03T18:48:37.995Z,15.30
2019-04-03T18:51:11.953Z,13.40
2019-04-03T18:53:47.440Z,17.23
2019-04-03T18:56:21.807Z,14.00
2019-04-03T18:58:55.702Z,14.27
2019-04-03T19:01:32.305Z,14.90
2019-04-03T19:04:05.119Z,15.60
2019-04-03T19:06:40.437Z,15.00
2019-04-03T19:09:15.228Z,14.30
2019-04-03T19:11:51.336Z,13.27
2019-04-03T19:14:31.453Z,15.37
2019-04-03T19:17:06.297Z,16.07
2019-04-03T19:19:41.230Z,13.30
2019-04-03T19:22:16.322Z,15.70
2019-04-03T19:24:52.627Z,12.30
2019-04-03T19:27:28.933Z,14.77
2019-04-03T19:30:02.539Z,13.37
2019-04-03T19:32:36.269Z,15.07
2019-04-03T19:35:10.540Z,15.50
2019-04-03T19:37:45.252Z,15.43
2019-04-03T19:40:19.509Z,13.90
2019-04-03T19:42:53.363Z,15.03
2019-04-03T19:45:27.804Z,15.20
2019-04-03T19:48:06.085Z,15.03
2019-04-03T19:50:40.723Z,15.03
2019-04-03T19:53:20.781Z,15.90
2019-04-03T19:55:55.390Z,14.87
2019-04-03T19:58:30.735Z,14.17
2019-04-03T20:01:07.734Z,16.00
2019-04-03T20:03:41.051Z,15.10
2019-04-03T20:06:15.735Z,13.13
2019-04-03T20:08:49.580Z,17.63
2019-04-03T20:11:25.052Z,17.07
2019-04-03T20:13:58.746Z,15.90
2019-04-03T20:16:32.331Z,26.53
2019-04-03T20:19:06.099Z,16.20
2019-04-03T20:21:40.553Z,17.50
2019-04-03T20:24:14.285Z,15.47
2019-04-03T20:26:47.908Z,15.20
2019-04-03T20:29:21.665Z,16.77
2019-04-03T20:31:56.478Z,17.10
2019-04-03T20:34:30.536Z,16.53
2019-04-03T20:49:11.165Z,19.73
2019-04-03T20:51:48.360Z,20.33
2019-04-03T20:54:21.961Z,20.40
2019-04-03T20:56:58.175Z,18.07
2019-04-03T20:59:31.423Z,21.03
2019-04-03T21:02:08.053Z,20.53
2019-04-03T21:04:41.069Z,19.90
2019-04-03T21:07:15.403Z,19.33
2019-04-03T21:09:49.152Z,21.73
2019-04-03T21:12:22.902Z,22.73
2019-04-03T21:15:07.795Z,17.87
2019-04-03T21:17:33.227Z,23.77
2019-04-03T21:20:07.743Z,23.83
2019-04-03T21:22:41.494Z,21.40
2019-04-03T21:25:15.628Z,24.37
2019-04-03T21:27:49.719Z,22.00
2019-04-03T21:30:24.033Z,24.47
2019-04-03T21:32:59.873Z,18.40
2019-04-03T21:35:35.251Z,23.20
2019-04-03T21:38:10.949Z,22.70
2019-04-03T21:40:46.928Z,19.73
2019-04-03T21:43:21.083Z,17.83
2019-04-03T21:45:55.505Z,16.73
2019-04-03T21:48:29.125Z,18.53
2019-04-03T21:51:03.189Z,26.40
2019-04-03T21:53:37.623Z,30.03
2019-04-03T21:56:12.055Z,41.27
2019-04-03T21:58:46.174Z,32.30
2019-04-03T22:01:27.094Z,21.03
2019-04-03T22:04:01.123Z,24.30
2019-04-03T22:06:34.740Z,7.60
2019-04-03T22:09:12.327Z,6.23
2019-04-03T22:11:45.919Z,9.50
2019-04-03T22:14:19.847Z,7.10
2019-04-03T22:16:53.452Z,11.80
2019-04-03T22:19:28.171Z,6.70
2019-04-03T22:22:03.033Z,7.37
2019-04-03T22:24:37.810Z,7.13
2019-04-03T22:27:12.580Z,6.87
2019-04-03T22:29:46.229Z,6.50
2019-04-03T22:32:19.886Z,5.30
2019-04-03T22:34:53.878Z,3.37
2019-04-03T22:37:27.506Z,4.20
2019-04-03T22:40:01.065Z,4.63
2019-04-03T22:42:35.242Z,6.47
2019-04-03T22:45:09.106Z,6.03
2019-04-03T22:47:42.797Z,7.87
2019-04-03T22:50:16.534Z,6.93
2019-04-03T22:52:51.012Z,9.23
2019-04-03T22:55:24.622Z,5.63
2019-04-03T22:57:58.301Z,7.90
2019-04-03T23:00:31.996Z,7.00
2019-04-03T23:03:05.655Z,6.57
2019-04-03T23:05:39.568Z,4.30
2019-04-03T23:08:13.704Z,3.50
2019-04-03T23:10:47.830Z,5.77
2019-04-03T23:13:21.565Z,4.70
2019-04-03T23:15:55.208Z,5.37
2019-04-03T23:18:28.879Z,5.60
2019-04-03T23:21:02.550Z,5.43
2019-04-03T23:23:37.042Z,5.93
2019-04-03T23:26:10.806Z,6.67
2019-04-03T23:28:44.481Z,8.10
2019-04-03T23:31:18.164Z,4.90
2019-04-03T23:33:51.859Z,5.50
2019-04-03T23:36:26.176Z,6.30
2019-04-03T23:38:59.844Z,4.90
2019-04-03T23:41:36.349Z,6.87
2019-04-03T23:44:10.698Z,6.20
2019-04-03T23:46:45.616Z,5.33
2019-04-03T23:49:20.202Z,4.97
2019-04-03T23:51:54.532Z,6.40
2019-04-03T23:54:28.274Z,6.30
2019-04-03T23:57:02.451Z,5.57
2019-04-03T23:59:36.447Z,8.50
